Skardu Weather



Skardu's Current Weather

Temprature 31.3o few clouds

few clouds

Rain: 0 %

Min Temprature31.3o
Max Temprature31.3o
Humidity28
Wind Speed2.16 m/h
Sun Rise05:00:03
Sun Set19:07:34
Current Time: 24-Jul-2021 15:22:01
Lat/Lon: 35.2885, 75.6333




Skardu's Geo Location



Skardu's Weather Forecast

Time Overall Temp Min Temp Max Temp Humidity Wind Speed Rain
24-Jul-2021 (Sat)
17:00:00 few clouds 31.290 31.290 31.620 28 1.85 m/h 0 %
20:00:00 scattered clouds 30.390 30.020 30.390 31 2.75 m/h 0 %
23:00:00 few clouds 27.170 27.170 27.170 41 2.06 m/h 0 %
25-Jul-2021 (Sun)
02:00:00 scattered clouds 25.400 25.400 25.400 44 1.64 m/h 0 %
05:00:00 scattered clouds 23.800 23.800 23.800 46 1.54 m/h 0 %
08:00:00 scattered clouds 26.930 26.930 26.930 36 1.31 m/h 0 %
11:00:00 few clouds 30.730 30.730 30.730 28 1.87 m/h 0 %
14:00:00 clear sky 33.670 33.670 33.670 23 2.2 m/h 0 %
17:00:00 few clouds 34.210 34.210 34.210 22 3.21 m/h 0 %
20:00:00 broken clouds 31.220 31.220 31.220 30 2.72 m/h 0 %
23:00:00 broken clouds 28.530 28.530 28.530 37 2.14 m/h 0 %
26-Jul-2021 (Mon)
02:00:00 few clouds 26.380 26.380 26.380 41 1.71 m/h 0 %
05:00:00 few clouds 24.480 24.480 24.480 43 1.36 m/h 0 %
08:00:00 few clouds 27.460 27.460 27.460 32 1.72 m/h 0 %
11:00:00 clear sky 31.140 31.140 31.140 25 1.81 m/h 0 %
14:00:00 clear sky 34.150 34.150 34.150 19 2.11 m/h 0 %
17:00:00 clear sky 34.860 34.860 34.860 17 2.8 m/h 0 %
20:00:00 clear sky 31.830 31.830 31.830 25 2.69 m/h 0 %
23:00:00 clear sky 29.150 29.150 29.150 33 1.96 m/h 0 %
27-Jul-2021 (Tue)
02:00:00 clear sky 26.840 26.840 26.840 38 1.36 m/h 0 %
05:00:00 clear sky 25.000 25.000 25.000 47 1.27 m/h 0 %
08:00:00 clear sky 28.040 28.040 28.040 30 1.58 m/h 0 %
11:00:00 clear sky 31.660 31.660 31.660 24 1.77 m/h 0 %
14:00:00 clear sky 34.530 34.530 34.530 18 1.95 m/h 0 %
17:00:00 clear sky 35.030 35.030 35.030 17 2.7 m/h 0 %
20:00:00 clear sky 32.150 32.150 32.150 25 1.93 m/h 0 %
23:00:00 scattered clouds 28.640 28.640 28.640 44 2.99 m/h 0 %
28-Jul-2021 (Wed)
02:00:00 overcast clouds 26.770 26.770 26.770 50 2.06 m/h 0 %
05:00:00 light rain 25.450 25.450 25.450 53 2.27 m/h 11 %
08:00:00 light rain 26.840 26.840 26.840 44 0.87 m/h 15 %
11:00:00 light rain 29.020 29.020 29.020 35 0.72 m/h 23 %
14:00:00 light rain 29.300 29.300 29.300 38 2.86 m/h 26 %
17:00:00 light rain 27.650 27.650 27.650 45 3.25 m/h 27 %
20:00:00 light rain 24.410 24.410 24.410 60 1.66 m/h 143 %
23:00:00 light rain 22.660 22.660 22.660 71 0.48 m/h 216 %
29-Jul-2021 (Thu)
02:00:00 light rain 22.620 22.620 22.620 69 0.57 m/h 122 %
05:00:00 light rain 22.590 22.590 22.590 67 0.83 m/h 90 %
08:00:00 light rain 23.960 23.960 23.960 58 1.27 m/h 56 %
11:00:00 light rain 27.070 27.070 27.070 45 1.57 m/h 26 %
14:00:00 light rain 28.830 28.830 28.830 40 1.16 m/h 14 %

Famous Cities (60)